createdAt,value
2022-12-15T00:01:28.613Z,0.23
2022-12-15T00:04:13.925Z,0.38
2022-12-15T00:06:59.080Z,0.33
2022-12-15T00:09:44.416Z,0.44
2022-12-15T00:12:29.946Z,0.26
2022-12-15T00:15:14.823Z,0.11
2022-12-15T00:18:00.110Z,0.18
2022-12-15T00:20:44.954Z,0.31
2022-12-15T00:23:31.365Z,0.24
2022-12-15T00:26:16.901Z,0.17
2022-12-15T00:29:02.076Z,0.23
2022-12-15T00:31:47.444Z,0.17
2022-12-15T00:34:32.667Z,0.15
2022-12-15T00:37:17.523Z,0.32
2022-12-15T00:39:43.996Z,0.35
2022-12-15T00:42:10.472Z,0.25
2022-12-15T00:44:39.704Z,0.29
2022-12-15T00:47:06.391Z,0.27
2022-12-15T00:49:51.695Z,0.24
2022-12-15T00:52:36.967Z,0.32
2022-12-15T00:55:22.656Z,0.25
2022-12-15T00:58:07.944Z,0.33
2022-12-15T01:00:53.222Z,0.18
2022-12-15T01:03:39.480Z,0.16
2022-12-15T01:06:25.310Z,0.20
2022-12-15T01:09:10.538Z,0.11
2022-12-15T01:11:55.767Z,0.07
2022-12-15T01:14:41.081Z,0.16
2022-12-15T01:17:26.370Z,0.30
2022-12-15T01:20:11.742Z,0.20
2022-12-15T01:22:38.352Z,0.20
2022-12-15T01:25:05.863Z,0.25
2022-12-15T01:27:32.320Z,0.13
2022-12-15T01:29:58.831Z,0.12
2022-12-15T01:32:25.283Z,0.15
2022-12-15T01:34:51.810Z,0.32
2022-12-15T01:37:18.281Z,0.31
2022-12-15T01:40:03.235Z,0.45
2022-12-15T01:42:29.700Z,0.04
2022-12-15T01:45:16.391Z,0.14
2022-12-15T01:47:42.825Z,0.08
2022-12-15T01:50:13.120Z,0.11
2022-12-15T01:52:39.569Z,0.16
2022-12-15T01:55:06.142Z,-0.05
2022-12-15T01:57:32.621Z,0.17
2022-12-15T01:59:59.603Z,0.02
2022-12-15T02:02:27.532Z,0.14
2022-12-15T02:04:54.543Z,0.27
2022-12-15T02:07:20.994Z,0.30
2022-12-15T02:09:47.485Z,0.30
2022-12-15T02:12:18.299Z,0.21
2022-12-15T02:14:53.993Z,0.13
2022-12-15T02:17:38.201Z,0.25
2022-12-15T02:20:23.493Z,0.11
2022-12-15T02:23:05.264Z,0.04
2022-12-15T02:25:38.331Z,0.02
2022-12-15T02:28:05.343Z,-0.13
2022-12-15T02:31:11.182Z,0.00
2022-12-15T02:33:42.520Z,0.18
2022-12-15T02:36:15.095Z,0.23
2022-12-15T02:38:41.663Z,0.25
2022-12-15T02:41:26.980Z,0.23
2022-12-15T02:43:53.443Z,0.17
2022-12-15T02:46:23.355Z,0.09
2022-12-15T02:48:49.866Z,-0.03
2022-12-15T02:51:27.546Z,0.12
2022-12-15T02:54:10.338Z,0.17
2022-12-15T02:57:00.139Z,0.08
2022-12-15T02:59:36.725Z,0.27
2022-12-15T03:02:03.873Z,0.31
2022-12-15T03:04:33.792Z,0.12
2022-12-15T03:07:01.786Z,0.17
2022-12-15T03:09:28.284Z,0.16
2022-12-15T03:11:54.783Z,0.18
2022-12-15T03:14:21.300Z,0.22
2022-12-15T03:16:47.821Z,0.27
2022-12-15T03:19:14.364Z,0.18
2022-12-15T03:21:40.875Z,0.13
2022-12-15T03:24:07.513Z,-0.09
2022-12-15T03:26:34.023Z,0.02
2022-12-15T03:29:00.636Z,-0.05
2022-12-15T03:31:27.182Z,-0.08
2022-12-15T03:33:53.757Z,-0.09
2022-12-15T03:36:20.250Z,-0.04
2022-12-15T03:38:46.739Z,-0.05
2022-12-15T03:41:13.259Z,-0.03
2022-12-15T03:43:39.720Z,-0.04
2022-12-15T03:46:06.267Z,-0.05
2022-12-15T03:48:32.796Z,-0.19
2022-12-15T03:50:59.285Z,-0.15
2022-12-15T03:53:25.753Z,-0.05
2022-12-15T03:55:52.225Z,-0.09
2022-12-15T03:58:18.729Z,-0.09
2022-12-15T04:00:45.344Z,-0.06
2022-12-15T04:03:11.913Z,0.04
2022-12-15T04:05:38.677Z,0.21
2022-12-15T04:08:05.722Z,0.28
2022-12-15T04:10:34.833Z,0.18
2022-12-15T04:13:05.852Z,0.19
2022-12-15T04:15:32.507Z,0.06
2022-12-15T04:17:58.992Z,0.22
2022-12-15T04:20:25.442Z,0.16
2022-12-15T04:22:51.905Z,0.08
2022-12-15T04:25:38.299Z,0.10
2022-12-15T04:28:23.431Z,0.31
2022-12-15T04:31:15.326Z,0.36
2022-12-15T04:34:01.726Z,0.21
2022-12-15T04:36:47.064Z,0.16
2022-12-15T04:39:32.433Z,0.28
2022-12-15T04:42:17.712Z,0.14
2022-12-15T04:45:02.955Z,0.22
2022-12-15T04:47:48.071Z,0.26
2022-12-15T04:50:33.295Z,0.13
2022-12-15T04:53:28.470Z,0.13
2022-12-15T04:56:18.422Z,0.06
2022-12-15T04:59:04.516Z,0.06
2022-12-15T05:01:49.854Z,0.02
2022-12-15T05:04:35.061Z,-0.03
2022-12-15T05:07:20.402Z,-0.09
2022-12-15T05:10:11.000Z,0.01
2022-12-15T05:12:59.712Z,0.04
2022-12-15T05:15:44.984Z,0.02
2022-12-15T05:18:30.302Z,-0.12
2022-12-15T05:21:16.460Z,-0.08
2022-12-15T05:24:01.339Z,-0.13
2022-12-15T05:26:52.371Z,0.00
2022-12-15T05:29:38.215Z,0.01
2022-12-15T05:32:04.740Z,0.27
2022-12-15T05:34:31.754Z,0.21
2022-12-15T05:36:58.655Z,0.13
2022-12-15T05:39:25.315Z,0.11
2022-12-15T05:41:51.990Z,0.08
2022-12-15T05:44:18.505Z,0.35
2022-12-15T05:46:45.201Z,0.28
2022-12-15T05:49:12.705Z,0.35
2022-12-15T05:51:40.457Z,0.40
2022-12-15T05:54:11.335Z,0.30
2022-12-15T05:56:37.971Z,0.23
2022-12-15T05:59:04.774Z,0.07
2022-12-15T06:01:31.541Z,0.10
2022-12-15T06:03:58.454Z,0.09
2022-12-15T06:06:25.230Z,-0.02
2022-12-15T06:08:51.708Z,0.28
2022-12-15T06:11:18.843Z,0.36
2022-12-15T06:13:45.452Z,0.14
2022-12-15T06:16:16.457Z,0.04
2022-12-15T06:18:43.833Z,-0.03
2022-12-15T06:21:18.026Z,-0.08
2022-12-15T06:23:44.814Z,0.13
2022-12-15T06:26:12.698Z,0.27
2022-12-15T06:28:39.212Z,0.16
2022-12-15T06:31:06.988Z,-0.06
2022-12-15T06:33:34.026Z,-0.01
2022-12-15T06:36:08.184Z,-0.11
2022-12-15T06:38:34.742Z,-0.17
2022-12-15T06:41:01.859Z,0.01
2022-12-15T06:43:29.402Z,-0.07
2022-12-15T06:45:56.308Z,0.01
2022-12-15T06:48:23.244Z,0.12
2022-12-15T06:50:50.252Z,0.19
2022-12-15T06:53:17.642Z,0.21
2022-12-15T06:55:44.271Z,0.04
2022-12-15T06:58:12.412Z,0.12
2022-12-15T07:00:39.182Z,-0.11
2022-12-15T07:03:18.519Z,-0.03
2022-12-15T07:05:45.251Z,0.09
2022-12-15T07:08:12.213Z,0.01
2022-12-15T07:10:41.988Z,-0.02
2022-12-15T07:13:09.959Z,0.02
2022-12-15T07:15:36.992Z,0.08
2022-12-15T07:18:03.542Z,-0.01
2022-12-15T07:20:30.044Z,0.01
2022-12-15T07:22:56.593Z,0.03
2022-12-15T07:25:23.232Z,-0.01
2022-12-15T07:27:49.753Z,0.01
2022-12-15T07:30:16.441Z,-0.02
2022-12-15T07:32:44.411Z,0.16
2022-12-15T07:35:17.988Z,0.21
2022-12-15T07:37:44.476Z,0.27
2022-12-15T07:40:11.106Z,0.30
2022-12-15T07:42:37.601Z,0.37
2022-12-15T07:45:05.259Z,0.38
2022-12-15T07:47:32.047Z,0.41
2022-12-15T07:49:58.553Z,0.49
2022-12-15T07:52:25.145Z,0.51
2022-12-15T07:54:51.646Z,0.45
2022-12-15T07:57:18.220Z,0.49
2022-12-15T07:59:44.937Z,0.63
2022-12-15T08:02:12.094Z,0.60
2022-12-15T08:04:40.003Z,0.75
2022-12-15T08:07:06.570Z,0.55
2022-12-15T08:09:33.110Z,0.65
2022-12-15T08:11:59.585Z,0.70
2022-12-15T08:14:26.129Z,0.65
2022-12-15T08:16:52.891Z,0.61
2022-12-15T08:19:19.599Z,0.77
2022-12-15T08:21:46.781Z,0.81
2022-12-15T08:24:14.378Z,0.75
2022-12-15T08:26:41.335Z,0.76
2022-12-15T08:31:55.383Z,0.71
2022-12-15T08:34:22.133Z,0.88
2022-12-15T08:36:48.670Z,0.97
2022-12-15T08:39:15.136Z,1.01
2022-12-15T08:41:41.661Z,1.04
2022-12-15T08:44:08.122Z,1.02
2022-12-15T08:46:34.640Z,1.09
2022-12-15T08:49:01.553Z,1.26
2022-12-15T08:51:28.655Z,1.10
2022-12-15T08:53:55.474Z,1.31
2022-12-15T08:56:22.490Z,1.44
2022-12-15T08:58:49.452Z,1.51
2022-12-15T09:01:22.499Z,1.70
2022-12-15T09:03:50.574Z,1.53
2022-12-15T09:06:21.092Z,1.70
2022-12-15T09:08:50.246Z,1.67
2022-12-15T09:11:17.190Z,1.81
2022-12-15T09:13:43.734Z,1.68
2022-12-15T09:16:16.938Z,1.60
2022-12-15T09:18:44.437Z,1.61
2022-12-15T09:21:11.329Z,1.72
2022-12-15T09:23:37.858Z,1.60
2022-12-15T09:26:05.468Z,1.62
2022-12-15T09:28:32.172Z,1.47
2022-12-15T09:31:02.733Z,1.72
2022-12-15T09:33:29.566Z,1.35
2022-12-15T09:35:56.416Z,1.45
2022-12-15T09:38:22.870Z,1.33
2022-12-15T09:40:49.977Z,1.31
2022-12-15T09:43:33.958Z,1.34
2022-12-15T09:46:07.125Z,1.45
2022-12-15T09:48:36.154Z,1.57
2022-12-15T09:51:02.796Z,1.59
2022-12-15T09:53:54.135Z,1.68
2022-12-15T09:56:19.261Z,1.98
2022-12-15T09:59:04.636Z,2.13
2022-12-15T10:01:39.046Z,1.89
2022-12-15T10:04:14.755Z,1.81
2022-12-15T10:06:43.117Z,1.81
2022-12-15T10:09:14.336Z,2.05
2022-12-15T10:11:45.226Z,2.03
2022-12-15T10:14:16.958Z,1.95
2022-12-15T10:16:43.406Z,1.91
2022-12-15T10:19:13.914Z,1.94
2022-12-15T10:21:40.388Z,1.85
2022-12-15T10:25:00.223Z,1.87
2022-12-15T10:27:27.434Z,1.85
2022-12-15T10:30:00.872Z,1.84
2022-12-15T10:32:42.768Z,1.77
2022-12-15T10:35:23.647Z,1.77
2022-12-15T10:37:50.317Z,1.83
2022-12-15T10:40:20.776Z,1.45
2022-12-15T10:42:48.461Z,1.70
2022-12-15T10:45:35.696Z,1.89
2022-12-15T10:48:04.027Z,2.08
2022-12-15T10:50:30.823Z,2.05
2022-12-15T10:52:57.339Z,1.97
2022-12-15T10:55:36.874Z,2.01
2022-12-15T10:58:04.385Z,2.16
2022-12-15T11:00:31.838Z,2.08
2022-12-15T11:02:58.928Z,2.15
2022-12-15T11:05:25.631Z,2.09
2022-12-15T11:07:55.931Z,1.86
2022-12-15T11:10:52.357Z,2.02
2022-12-15T11:13:19.785Z,2.11
2022-12-15T11:15:51.312Z,2.22
2022-12-15T11:18:19.693Z,2.03
2022-12-15T11:21:05.786Z,2.14
2022-12-15T11:23:38.421Z,2.15
2022-12-15T11:26:07.255Z,1.98
2022-12-15T11:28:39.709Z,2.05
2022-12-15T11:31:09.576Z,2.41
2022-12-15T11:33:36.425Z,2.37
2022-12-15T11:36:13.857Z,2.38
2022-12-15T11:38:40.385Z,2.24
2022-12-15T11:41:15.426Z,2.34
2022-12-15T11:43:50.481Z,2.14
2022-12-15T11:46:17.397Z,2.00
2022-12-15T11:48:53.115Z,1.80
2022-12-15T11:51:38.282Z,2.09
2022-12-15T11:54:23.378Z,2.30
2022-12-15T11:56:51.810Z,2.01
2022-12-15T11:59:23.128Z,2.34
2022-12-15T12:02:08.618Z,2.51
2022-12-15T12:04:43.467Z,2.50
2022-12-15T12:07:28.810Z,2.32
2022-12-15T12:10:14.042Z,2.37
2022-12-15T12:12:42.336Z,2.03
2022-12-15T12:15:16.735Z,2.36
2022-12-15T12:17:46.623Z,2.36
2022-12-15T12:20:18.045Z,1.73
2022-12-15T12:22:48.498Z,2.06
2022-12-15T12:25:18.505Z,2.26
2022-12-15T12:27:45.207Z,2.02
2022-12-15T12:30:16.482Z,2.07
2022-12-15T12:32:50.348Z,2.10
2022-12-15T12:35:38.911Z,2.42
2022-12-15T12:38:06.219Z,2.20
2022-12-15T12:40:47.163Z,2.37
2022-12-15T12:43:26.651Z,2.49
2022-12-15T12:45:57.462Z,2.53
2022-12-15T12:48:28.397Z,2.68
2022-12-15T12:51:13.155Z,2.83
2022-12-15T12:53:39.708Z,3.05
2022-12-15T12:56:06.202Z,3.06
2022-12-15T12:58:39.808Z,3.25
2022-12-15T13:01:16.211Z,3.18
2022-12-15T13:03:43.576Z,3.02
2022-12-15T13:06:42.316Z,3.10
2022-12-15T13:09:18.099Z,3.14
2022-12-15T13:11:47.375Z,3.07
2022-12-15T13:14:22.498Z,3.32
2022-12-15T13:17:24.996Z,3.07
2022-12-15T13:19:55.293Z,2.94
2022-12-15T13:22:48.774Z,2.81
2022-12-15T13:25:28.010Z,2.79
2022-12-15T13:27:57.843Z,2.81
2022-12-15T13:30:24.428Z,2.80
2022-12-15T13:32:56.389Z,2.44
2022-12-15T13:35:26.599Z,2.71
2022-12-15T13:37:56.546Z,2.75
2022-12-15T13:40:22.970Z,2.63
2022-12-15T13:42:59.779Z,2.64
2022-12-15T13:45:48.869Z,2.37
2022-12-15T13:48:20.315Z,2.48
2022-12-15T13:50:51.160Z,2.39
2022-12-15T13:53:21.234Z,2.37
2022-12-15T13:55:59.397Z,2.31
2022-12-15T13:58:26.139Z,2.38
2022-12-15T14:00:56.058Z,2.26
2022-12-15T14:03:22.741Z,2.37
2022-12-15T14:05:51.235Z,2.14
2022-12-15T14:08:18.306Z,2.25
2022-12-15T14:10:50.919Z,2.15
2022-12-15T14:13:30.172Z,2.28
2022-12-15T14:16:17.860Z,2.31
2022-12-15T14:18:48.478Z,2.17
2022-12-15T14:21:21.330Z,2.29
2022-12-15T14:24:11.304Z,2.07
2022-12-15T14:26:34.501Z,2.23
2022-12-15T14:29:01.656Z,2.01
2022-12-15T14:31:28.242Z,2.03
2022-12-15T14:34:01.919Z,1.96
2022-12-15T14:36:28.630Z,2.11
2022-12-15T14:39:02.339Z,2.15
2022-12-15T14:41:32.889Z,2.18
2022-12-15T14:44:32.042Z,1.97
2022-12-15T14:46:47.738Z,2.13
2022-12-15T14:49:18.657Z,2.06
2022-12-15T14:51:46.476Z,2.02
2022-12-15T14:54:31.687Z,1.97
2022-12-15T14:57:02.135Z,2.05
2022-12-15T14:59:32.143Z,2.06
2022-12-15T15:02:00.154Z,2.00
2022-12-15T15:04:29.797Z,2.04
2022-12-15T15:06:56.563Z,2.00
2022-12-15T15:09:27.600Z,2.08
2022-12-15T15:12:00.333Z,1.97
2022-12-15T15:14:27.557Z,1.89
2022-12-15T15:16:59.025Z,1.84
2022-12-15T15:19:25.597Z,1.70
2022-12-15T15:21:52.057Z,1.75
2022-12-15T15:24:21.471Z,1.59
2022-12-15T15:26:48.127Z,1.59
2022-12-15T15:29:30.360Z,1.58
2022-12-15T15:32:12.138Z,1.58
2022-12-15T15:34:38.641Z,1.39
2022-12-15T15:37:06.171Z,1.57
2022-12-15T15:39:32.709Z,1.60
2022-12-15T15:42:04.002Z,1.50
2022-12-15T15:44:30.512Z,1.48
2022-12-15T15:46:57.003Z,1.58
2022-12-15T15:49:24.548Z,1.66
2022-12-15T15:51:51.022Z,1.37
2022-12-15T15:54:18.138Z,1.48
2022-12-15T15:56:44.929Z,1.57
2022-12-15T15:59:12.477Z,1.56
2022-12-15T16:01:39.253Z,1.51
2022-12-15T16:04:09.197Z,1.56
2022-12-15T16:06:35.795Z,1.57
2022-12-15T16:09:02.346Z,1.43
2022-12-15T16:11:29.270Z,1.60
2022-12-15T16:13:56.745Z,1.57
2022-12-15T16:16:28.065Z,1.64
2022-12-15T16:18:54.737Z,1.43
2022-12-15T16:21:21.786Z,1.53
2022-12-15T16:23:48.346Z,1.45
2022-12-15T16:26:16.012Z,1.44
2022-12-15T16:28:45.365Z,1.49
2022-12-15T16:31:18.040Z,1.44
2022-12-15T16:33:44.671Z,1.60
2022-12-15T16:36:14.438Z,1.45
2022-12-15T16:38:41.113Z,1.45
2022-12-15T16:41:08.406Z,1.50
2022-12-15T16:43:39.118Z,1.51
2022-12-15T16:46:10.165Z,1.56
2022-12-15T16:48:37.586Z,1.47
2022-12-15T16:51:05.758Z,1.53
2022-12-15T16:53:32.734Z,1.54
2022-12-15T16:56:02.727Z,1.53
2022-12-15T16:58:29.620Z,1.56
2022-12-15T17:00:56.527Z,1.58
2022-12-15T17:03:25.897Z,1.60
2022-12-15T17:05:53.777Z,1.45
2022-12-15T17:08:21.999Z,1.44
2022-12-15T17:10:49.049Z,1.44
2022-12-15T17:13:45.386Z,1.53
2022-12-15T17:16:14.561Z,1.57
2022-12-15T17:18:42.747Z,1.59
2022-12-15T17:21:13.162Z,1.49
2022-12-15T17:23:39.670Z,1.38
2022-12-15T17:26:28.563Z,1.45
2022-12-15T17:28:53.310Z,1.45
2022-12-15T17:31:21.246Z,1.48
2022-12-15T17:33:48.203Z,1.52
2022-12-15T17:36:15.901Z,1.61
2022-12-15T17:38:42.397Z,1.54
2022-12-15T17:41:28.760Z,1.53
2022-12-15T17:44:24.131Z,1.59
2022-12-15T17:46:44.195Z,1.69
2022-12-15T17:49:10.854Z,1.68
2022-12-15T17:51:37.347Z,1.74
2022-12-15T17:54:03.870Z,1.78
2022-12-15T17:56:30.381Z,1.72
2022-12-15T17:58:56.848Z,1.79
2022-12-15T18:01:23.559Z,1.62
2022-12-15T18:03:50.233Z,1.74
2022-12-15T18:06:16.850Z,1.63
2022-12-15T18:08:43.344Z,1.62
2022-12-15T18:11:14.649Z,1.59
2022-12-15T18:13:41.668Z,1.60
2022-12-15T18:16:08.475Z,1.68
2022-12-15T18:18:35.101Z,1.55
2022-12-15T18:21:02.448Z,1.49
2022-12-15T18:23:30.669Z,1.52
2022-12-15T18:26:02.703Z,1.63
2022-12-15T18:28:30.777Z,1.64
2022-12-15T18:31:04.611Z,1.68
2022-12-15T18:33:31.757Z,1.52
2022-12-15T18:35:58.598Z,1.55
2022-12-15T18:38:26.363Z,1.40
2022-12-15T18:40:53.780Z,1.50
2022-12-15T18:43:21.222Z,1.43
2022-12-15T18:45:48.095Z,1.54
2022-12-15T18:48:30.843Z,1.37
2022-12-15T18:50:58.352Z,1.34
2022-12-15T18:53:31.387Z,1.33
2022-12-15T18:55:59.663Z,1.46
2022-12-15T18:58:27.412Z,1.49
2022-12-15T19:00:54.894Z,1.41
2022-12-15T19:03:21.736Z,1.37
2022-12-15T19:05:48.603Z,1.34
2022-12-15T19:08:20.139Z,1.38
2022-12-15T19:10:50.888Z,1.34
2022-12-15T19:13:18.615Z,1.42
2022-12-15T19:15:45.190Z,1.45
2022-12-15T19:18:31.846Z,1.35
2022-12-15T19:21:17.097Z,1.29
2022-12-15T19:23:43.613Z,1.36
2022-12-15T19:26:10.781Z,1.13
2022-12-15T19:28:37.282Z,1.32
2022-12-15T19:31:03.833Z,1.35
2022-12-15T19:33:30.655Z,1.44
2022-12-15T19:35:57.575Z,1.30
2022-12-15T19:38:27.512Z,1.45
2022-12-15T19:40:54.519Z,1.48
2022-12-15T19:43:21.530Z,1.51
2022-12-15T19:45:48.202Z,1.47
2022-12-15T19:48:18.706Z,1.35
2022-12-15T19:50:50.418Z,1.56
2022-12-15T19:53:21.778Z,1.64
2022-12-15T19:55:48.254Z,1.57
2022-12-15T19:58:28.769Z,1.53
2022-12-15T20:00:56.125Z,1.48
2022-12-15T20:03:22.738Z,1.49
2022-12-15T20:05:52.344Z,1.46
2022-12-15T20:08:20.387Z,1.38
2022-12-15T20:10:46.866Z,1.31
2022-12-15T20:13:13.359Z,1.41
2022-12-15T20:15:40.012Z,1.34
2022-12-15T20:18:06.532Z,1.48
2022-12-15T20:20:33.370Z,1.48
2022-12-15T20:23:01.249Z,1.64
2022-12-15T20:25:29.549Z,1.48
2022-12-15T20:27:56.466Z,1.49
2022-12-15T20:30:24.002Z,1.54
2022-12-15T20:32:50.620Z,1.45
2022-12-15T20:35:17.422Z,1.44
2022-12-15T20:37:44.042Z,1.38
2022-12-15T20:40:24.168Z,1.44
2022-12-15T20:42:51.396Z,1.35
2022-12-15T20:45:18.720Z,1.31
2022-12-15T20:47:45.770Z,1.31
2022-12-15T20:50:23.216Z,1.37
2022-12-15T20:52:49.739Z,1.37
2022-12-15T20:55:18.574Z,1.19
2022-12-15T20:57:45.043Z,1.24
2022-12-15T21:00:13.266Z,1.14
2022-12-15T21:02:40.584Z,1.14
2022-12-15T21:05:07.263Z,1.05
2022-12-15T21:07:33.747Z,1.23
2022-12-15T21:10:00.226Z,1.33
2022-12-15T21:12:27.569Z,1.26
2022-12-15T21:14:54.471Z,1.12
2022-12-15T21:17:22.053Z,0.97
2022-12-15T21:19:49.036Z,1.04
2022-12-15T21:22:22.878Z,0.97
2022-12-15T21:24:53.134Z,0.91
2022-12-15T21:27:20.011Z,0.92
2022-12-15T21:29:52.294Z,0.94
2022-12-15T21:32:19.485Z,0.94
2022-12-15T21:34:45.963Z,0.81
2022-12-15T21:37:23.122Z,0.97
2022-12-15T21:39:49.621Z,0.87
2022-12-15T21:42:17.047Z,1.02
2022-12-15T21:44:43.518Z,0.90
2022-12-15T21:47:25.964Z,0.99
2022-12-15T21:49:52.459Z,1.13
2022-12-15T21:52:19.088Z,1.04
2022-12-15T21:54:45.606Z,1.06
2022-12-15T21:57:12.478Z,1.12
2022-12-15T21:59:38.970Z,0.99
2022-12-15T22:02:15.280Z,1.10
2022-12-15T22:04:42.036Z,1.17
2022-12-15T22:07:10.546Z,1.15
2022-12-15T22:09:37.028Z,1.16
2022-12-15T22:12:03.536Z,1.16
2022-12-15T22:14:30.741Z,0.87
2022-12-15T22:16:57.534Z,0.91
2022-12-15T22:19:24.078Z,0.92
2022-12-15T22:21:50.715Z,0.68
2022-12-15T22:24:19.046Z,0.47
2022-12-15T22:26:45.598Z,0.58
2022-12-15T22:29:13.104Z,0.59
2022-12-15T22:31:39.793Z,0.62
2022-12-15T22:34:11.246Z,0.34
2022-12-15T22:36:37.881Z,0.48
2022-12-15T22:39:08.109Z,0.30
2022-12-15T22:41:34.832Z,0.41
2022-12-15T22:44:01.328Z,0.25
2022-12-15T22:46:27.846Z,0.15
2022-12-15T22:48:54.807Z,0.19
2022-12-15T22:51:21.520Z,0.42
2022-12-15T22:53:47.974Z,0.43
2022-12-15T22:56:21.500Z,0.49
2022-12-15T22:58:47.944Z,0.32
2022-12-15T23:01:14.478Z,0.22
2022-12-15T23:03:40.920Z,0.35
2022-12-15T23:06:07.394Z,0.31
2022-12-15T23:08:33.851Z,0.30
2022-12-15T23:11:19.156Z,0.47
2022-12-15T23:13:45.691Z,0.42
2022-12-15T23:16:21.790Z,0.47
2022-12-15T23:18:49.563Z,0.40
2022-12-15T23:21:18.674Z,0.27
2022-12-15T23:23:45.187Z,-0.07
2022-12-15T23:26:12.069Z,0.20
2022-12-15T23:28:38.662Z,0.27
2022-12-15T23:31:05.264Z,0.26
2022-12-15T23:33:32.254Z,0.24
2022-12-15T23:35:59.465Z,0.31
2022-12-15T23:38:26.207Z,0.31
2022-12-15T23:40:53.755Z,0.31
2022-12-15T23:43:21.766Z,0.31
2022-12-15T23:45:58.177Z,0.40
2022-12-15T23:48:24.963Z,0.30
2022-12-15T23:50:51.451Z,0.17
2022-12-15T23:53:18.429Z,0.20
2022-12-15T23:55:44.960Z,0.34
2022-12-15T23:58:11.581Z,0.40
